sensor_id;sensor_type;location;lat;lon;timestamp;P1;durP1;ratioP1;P2;durP2;ratioP2
8632;SDS011;4354;49.832;10.746;2022-08-05T00:00:11;3.72;;;3.42;;
8632;SDS011;4354;49.832;10.746;2022-08-05T00:02:41;5.32;;;3.95;;
8632;SDS011;4354;49.832;10.746;2022-08-05T00:05:16;3.70;;;3.40;;
8632;SDS011;4354;49.832;10.746;2022-08-05T00:08:03;4.00;;;3.60;;
8632;SDS011;4354;49.832;10.746;2022-08-05T00:10:50;4.28;;;3.88;;
8632;SDS011;4354;49.832;10.746;2022-08-05T00:13:17;4.10;;;3.80;;
8632;SDS011;4354;49.832;10.746;2022-08-05T00:15:45;5.35;;;3.75;;
8632;SDS011;4354;49.832;10.746;2022-08-05T00:18:21;4.25;;;3.65;;
8632;SDS011;4354;49.832;10.746;2022-08-05T00:20:49;4.28;;;3.70;;
8632;SDS011;4354;49.832;10.746;2022-08-05T00:23:17;4.05;;;3.75;;
8632;SDS011;4354;49.832;10.746;2022-08-05T00:26:05;4.13;;;3.83;;
8632;SDS011;4354;49.832;10.746;2022-08-05T00:28:32;4.68;;;4.30;;
8632;SDS011;4354;49.832;10.746;2022-08-05T00:31:00;4.47;;;4.07;;
8632;SDS011;4354;49.832;10.746;2022-08-05T00:33:29;4.10;;;3.75;;
8632;SDS011;4354;49.832;10.746;2022-08-05T00:36:17;4.18;;;3.83;;
8632;SDS011;4354;49.832;10.746;2022-08-05T00:39:03;4.30;;;3.90;;
8632;SDS011;4354;49.832;10.746;2022-08-05T00:41:39;4.40;;;3.92;;
8632;SDS011;4354;49.832;10.746;2022-08-05T00:44:21;3.92;;;3.63;;
8632;SDS011;4354;49.832;10.746;2022-08-05T00:46:56;4.00;;;3.70;;
8632;SDS011;4354;49.832;10.746;2022-08-05T00:49:29;5.70;;;3.88;;
8632;SDS011;4354;49.832;10.746;2022-08-05T00:52:09;4.28;;;3.88;;
8632;SDS011;4354;49.832;10.746;2022-08-05T00:54:37;4.82;;;4.00;;
8632;SDS011;4354;49.832;10.746;2022-08-05T00:57:03;4.63;;;3.70;;
8632;SDS011;4354;49.832;10.746;2022-08-05T00:59:30;3.83;;;3.53;;
8632;SDS011;4354;49.832;10.746;2022-08-05T01:02:09;5.15;;;3.80;;
8632;SDS011;4354;49.832;10.746;2022-08-05T01:04:36;4.00;;;3.70;;
8632;SDS011;4354;49.832;10.746;2022-08-05T01:07:07;3.63;;;3.33;;
8632;SDS011;4354;49.832;10.746;2022-08-05T01:09:39;4.57;;;4.00;;
8632;SDS011;4354;49.832;10.746;2022-08-05T01:12:10;6.10;;;4.18;;
8632;SDS011;4354;49.832;10.746;2022-08-05T01:14:48;4.10;;;3.80;;
8632;SDS011;4354;49.832;10.746;2022-08-05T01:17:37;4.50;;;4.10;;
8632;SDS011;4354;49.832;10.746;2022-08-05T01:23:00;4.00;;;3.70;;
8632;SDS011;4354;49.832;10.746;2022-08-05T01:33:49;4.53;;;4.13;;
8632;SDS011;4354;49.832;10.746;2022-08-05T01:36:23;6.00;;;3.97;;
8632;SDS011;4354;49.832;10.746;2022-08-05T01:38:55;4.68;;;4.25;;
8632;SDS011;4354;49.832;10.746;2022-08-05T01:41:26;5.50;;;4.20;;
8632;SDS011;4354;49.832;10.746;2022-08-05T01:43:57;4.57;;;4.18;;
8632;SDS011;4354;49.832;10.746;2022-08-05T01:46:27;4.63;;;4.20;;
8632;SDS011;4354;49.832;10.746;2022-08-05T01:49:14;4.57;;;3.78;;
8632;SDS011;4354;49.832;10.746;2022-08-05T01:51:50;5.65;;;4.60;;
8632;SDS011;4354;49.832;10.746;2022-08-05T01:54:23;4.40;;;4.10;;
8632;SDS011;4354;49.832;10.746;2022-08-05T01:56:55;5.13;;;4.63;;
8632;SDS011;4354;49.832;10.746;2022-08-05T01:59:44;4.50;;;4.07;;
8632;SDS011;4354;49.832;10.746;2022-08-05T02:02:13;4.65;;;4.28;;
8632;SDS011;4354;49.832;10.746;2022-08-05T02:04:42;4.82;;;4.25;;
8632;SDS011;4354;49.832;10.746;2022-08-05T02:07:14;4.40;;;4.03;;
8632;SDS011;4354;49.832;10.746;2022-08-05T02:09:48;4.57;;;4.18;;
8632;SDS011;4354;49.832;10.746;2022-08-05T02:17:48;5.07;;;4.30;;
8632;SDS011;4354;49.832;10.746;2022-08-05T02:20:51;5.60;;;4.25;;
8632;SDS011;4354;49.832;10.746;2022-08-05T02:23:25;5.13;;;3.72;;
8632;SDS011;4354;49.832;10.746;2022-08-05T02:25:59;4.68;;;4.28;;
8632;SDS011;4354;49.832;10.746;2022-08-05T02:28:28;6.47;;;4.22;;
8632;SDS011;4354;49.832;10.746;2022-08-05T02:31:04;4.68;;;4.07;;
8632;SDS011;4354;49.832;10.746;2022-08-05T02:33:46;4.60;;;4.20;;
8632;SDS011;4354;49.832;10.746;2022-08-05T02:36:23;5.00;;;4.50;;
8632;SDS011;4354;49.832;10.746;2022-08-05T02:38:56;5.50;;;4.55;;
8632;SDS011;4354;49.832;10.746;2022-08-05T02:41:25;4.85;;;4.38;;
8632;SDS011;4354;49.832;10.746;2022-08-05T02:44:13;4.50;;;4.10;;
8632;SDS011;4354;49.832;10.746;2022-08-05T02:46:43;4.93;;;4.43;;
8632;SDS011;4354;49.832;10.746;2022-08-05T02:49:26;4.40;;;4.00;;
8632;SDS011;4354;49.832;10.746;2022-08-05T02:52:03;5.40;;;4.93;;
8632;SDS011;4354;49.832;10.746;2022-08-05T02:54:34;5.32;;;4.90;;
8632;SDS011;4354;49.832;10.746;2022-08-05T02:57:09;5.47;;;4.18;;
8632;SDS011;4354;49.832;10.746;2022-08-05T02:59:58;4.30;;;4.00;;
8632;SDS011;4354;49.832;10.746;2022-08-05T03:02:36;7.32;;;4.25;;
8632;SDS011;4354;49.832;10.746;2022-08-05T03:05:08;4.68;;;4.28;;
8632;SDS011;4354;49.832;10.746;2022-08-05T03:07:37;6.35;;;4.43;;
8632;SDS011;4354;49.832;10.746;2022-08-05T03:10:26;4.43;;;4.13;;
8632;SDS011;4354;49.832;10.746;2022-08-05T03:12:52;4.55;;;4.15;;
8632;SDS011;4354;49.832;10.746;2022-08-05T03:15:20;5.03;;;4.57;;
8632;SDS011;4354;49.832;10.746;2022-08-05T03:17:52;4.75;;;4.35;;
8632;SDS011;4354;49.832;10.746;2022-08-05T03:20:21;4.25;;;3.85;;
8632;SDS011;4354;49.832;10.746;2022-08-05T03:22:49;4.63;;;4.22;;
8632;SDS011;4354;49.832;10.746;2022-08-05T03:25:17;4.68;;;4.28;;
8632;SDS011;4354;49.832;10.746;2022-08-05T03:28:06;7.93;;;4.22;;
8632;SDS011;4354;49.832;10.746;2022-08-05T03:30:34;6.30;;;4.55;;
8632;SDS011;4354;49.832;10.746;2022-08-05T03:33:02;4.85;;;4.45;;
8632;SDS011;4354;49.832;10.746;2022-08-05T03:35:31;5.00;;;4.60;;
8632;SDS011;4354;49.832;10.746;2022-08-05T03:37:59;4.63;;;4.10;;
8632;SDS011;4354;49.832;10.746;2022-08-05T03:40:26;5.38;;;4.88;;
8632;SDS011;4354;49.832;10.746;2022-08-05T03:42:57;4.75;;;4.45;;
8632;SDS011;4354;49.832;10.746;2022-08-05T03:45:45;4.93;;;4.53;;
8632;SDS011;4354;49.832;10.746;2022-08-05T03:48:24;5.10;;;4.20;;
8632;SDS011;4354;49.832;10.746;2022-08-05T03:57:09;5.40;;;4.32;;
8632;SDS011;4354;49.832;10.746;2022-08-05T04:00:03;5.50;;;4.60;;
8632;SDS011;4354;49.832;10.746;2022-08-05T04:02:33;5.07;;;4.60;;
8632;SDS011;4354;49.832;10.746;2022-08-05T04:05:04;6.22;;;4.38;;
8632;SDS011;4354;49.832;10.746;2022-08-05T04:07:34;7.82;;;4.85;;
8632;SDS011;4354;49.832;10.746;2022-08-05T04:10:24;5.20;;;4.80;;
8632;SDS011;4354;49.832;10.746;2022-08-05T04:12:53;5.38;;;4.72;;
8632;SDS011;4354;49.832;10.746;2022-08-05T04:15:24;4.53;;;4.13;;
8632;SDS011;4354;49.832;10.746;2022-08-05T04:18:00;4.72;;;4.40;;
8632;SDS011;4354;49.832;10.746;2022-08-05T04:20:28;4.70;;;4.35;;
8632;SDS011;4354;49.832;10.746;2022-08-05T04:22:56;5.25;;;4.85;;
8632;SDS011;4354;49.832;10.746;2022-08-05T04:25:23;4.35;;;4.00;;
8632;SDS011;4354;49.832;10.746;2022-08-05T04:28:10;5.13;;;4.13;;
8632;SDS011;4354;49.832;10.746;2022-08-05T04:30:38;7.25;;;4.40;;
8632;SDS011;4354;49.832;10.746;2022-08-05T04:33:04;4.50;;;4.15;;
8632;SDS011;4354;49.832;10.746;2022-08-05T04:35:32;5.97;;;4.25;;
8632;SDS011;4354;49.832;10.746;2022-08-05T04:38:19;6.15;;;4.47;;
8632;SDS011;4354;49.832;10.746;2022-08-05T04:40:46;5.10;;;4.60;;
8632;SDS011;4354;49.832;10.746;2022-08-05T04:43:16;5.85;;;4.80;;
8632;SDS011;4354;49.832;10.746;2022-08-05T04:45:47;4.80;;;4.10;;
8632;SDS011;4354;49.832;10.746;2022-08-05T04:48:20;4.70;;;4.30;;
8632;SDS011;4354;49.832;10.746;2022-08-05T04:50:53;5.25;;;4.22;;
8632;SDS011;4354;49.832;10.746;2022-08-05T04:53:30;4.28;;;3.88;;
8632;SDS011;4354;49.832;10.746;2022-08-05T04:56:00;4.47;;;4.18;;
8632;SDS011;4354;49.832;10.746;2022-08-05T04:58:47;6.50;;;4.35;;
8632;SDS011;4354;49.832;10.746;2022-08-05T05:01:14;4.07;;;3.78;;
8632;SDS011;4354;49.832;10.746;2022-08-05T05:04:01;4.38;;;3.97;;
8632;SDS011;4354;49.832;10.746;2022-08-05T05:06:29;4.68;;;4.28;;
8632;SDS011;4354;49.832;10.746;2022-08-05T05:09:09;4.43;;;4.03;;
8632;SDS011;4354;49.832;10.746;2022-08-05T05:11:43;4.60;;;4.00;;
8632;SDS011;4354;49.832;10.746;2022-08-05T05:14:21;4.43;;;4.13;;
8632;SDS011;4354;49.832;10.746;2022-08-05T05:16:57;5.13;;;4.72;;
8632;SDS011;4354;49.832;10.746;2022-08-05T05:19:24;4.75;;;4.35;;
8632;SDS011;4354;49.832;10.746;2022-08-05T05:22:01;7.75;;;4.53;;
8632;SDS011;4354;49.832;10.746;2022-08-05T05:24:48;5.07;;;4.53;;
8632;SDS011;4354;49.832;10.746;2022-08-05T05:27:28;4.60;;;4.10;;
8632;SDS011;4354;49.832;10.746;2022-08-05T05:30:11;6.75;;;4.30;;
8632;SDS011;4354;49.832;10.746;2022-08-05T05:32:54;5.10;;;4.00;;
8632;SDS011;4354;49.832;10.746;2022-08-05T05:35:21;5.60;;;4.38;;
8632;SDS011;4354;49.832;10.746;2022-08-05T05:37:49;6.32;;;4.43;;
8632;SDS011;4354;49.832;10.746;2022-08-05T05:40:26;4.47;;;3.92;;
8632;SDS011;4354;49.832;10.746;2022-08-05T05:42:55;4.35;;;3.65;;
8632;SDS011;4354;49.832;10.746;2022-08-05T05:45:22;5.30;;;4.03;;
8632;SDS011;4354;49.832;10.746;2022-08-05T05:47:50;3.53;;;3.15;;
8632;SDS011;4354;49.832;10.746;2022-08-05T05:50:33;5.03;;;3.65;;
8632;SDS011;4354;49.832;10.746;2022-08-05T05:53:09;5.25;;;3.47;;
8632;SDS011;4354;49.832;10.746;2022-08-05T05:55:47;4.90;;;3.03;;
8632;SDS011;4354;49.832;10.746;2022-08-05T05:58:25;6.40;;;3.10;;
8632;SDS011;4354;49.832;10.746;2022-08-05T06:00:57;7.55;;;3.22;;
8632;SDS011;4354;49.832;10.746;2022-08-05T06:03:39;7.43;;;2.88;;
8632;SDS011;4354;49.832;10.746;2022-08-05T06:06:26;6.03;;;3.45;;
8632;SDS011;4354;49.832;10.746;2022-08-05T06:08:58;4.65;;;3.22;;
8632;SDS011;4354;49.832;10.746;2022-08-05T06:11:25;7.68;;;3.10;;
8632;SDS011;4354;49.832;10.746;2022-08-05T06:13:54;5.18;;;3.17;;
8632;SDS011;4354;49.832;10.746;2022-08-05T06:16:21;4.97;;;3.10;;
8632;SDS011;4354;49.832;10.746;2022-08-05T06:18:57;5.20;;;2.97;;
8632;SDS011;4354;49.832;10.746;2022-08-05T06:21:27;5.47;;;3.15;;
8632;SDS011;4354;49.832;10.746;2022-08-05T06:24:04;6.22;;;2.97;;
8632;SDS011;4354;49.832;10.746;2022-08-05T06:26:40;4.82;;;2.72;;
8632;SDS011;4354;49.832;10.746;2022-08-05T06:29:17;7.63;;;3.25;;
8632;SDS011;4354;49.832;10.746;2022-08-05T06:32:04;3.35;;;3.05;;
8632;SDS011;4354;49.832;10.746;2022-08-05T06:34:46;4.35;;;2.90;;
8632;SDS011;4354;49.832;10.746;2022-08-05T06:37:21;3.53;;;2.92;;
8632;SDS011;4354;49.832;10.746;2022-08-05T06:40:08;6.05;;;2.70;;
8632;SDS011;4354;49.832;10.746;2022-08-05T06:42:35;6.70;;;2.90;;
8632;SDS011;4354;49.832;10.746;2022-08-05T06:45:05;8.88;;;3.00;;
8632;SDS011;4354;49.832;10.746;2022-08-05T06:47:34;5.50;;;2.92;;
8632;SDS011;4354;49.832;10.746;2022-08-05T06:50:22;7.05;;;3.00;;
8632;SDS011;4354;49.832;10.746;2022-08-05T06:52:50;3.85;;;2.72;;
8632;SDS011;4354;49.832;10.746;2022-08-05T06:55:36;6.25;;;2.80;;
8632;SDS011;4354;49.832;10.746;2022-08-05T06:58:07;3.00;;;2.58;;
8632;SDS011;4354;49.832;10.746;2022-08-05T07:00:54;5.57;;;2.58;;
8632;SDS011;4354;49.832;10.746;2022-08-05T07:03:23;3.30;;;2.38;;
8632;SDS011;4354;49.832;10.746;2022-08-05T07:05:58;5.68;;;2.95;;
8632;SDS011;4354;49.832;10.746;2022-08-05T07:08:39;3.30;;;2.65;;
8632;SDS011;4354;49.832;10.746;2022-08-05T07:11:07;4.75;;;2.63;;
8632;SDS011;4354;49.832;10.746;2022-08-05T07:13:40;3.58;;;2.45;;
8632;SDS011;4354;49.832;10.746;2022-08-05T07:16:27;5.32;;;2.47;;
8632;SDS011;4354;49.832;10.746;2022-08-05T07:19:33;4.03;;;2.40;;
8632;SDS011;4354;49.832;10.746;2022-08-05T07:22:19;4.55;;;2.15;;
8632;SDS011;4354;49.832;10.746;2022-08-05T07:24:55;3.78;;;2.67;;
8632;SDS011;4354;49.832;10.746;2022-08-05T07:27:23;5.68;;;2.60;;
8632;SDS011;4354;49.832;10.746;2022-08-05T07:29:52;3.75;;;2.70;;
8632;SDS011;4354;49.832;10.746;2022-08-05T07:32:39;3.72;;;2.17;;
8632;SDS011;4354;49.832;10.746;2022-08-05T07:35:09;2.75;;;2.33;;
8632;SDS011;4354;49.832;10.746;2022-08-05T07:37:57;7.32;;;2.40;;
8632;SDS011;4354;49.832;10.746;2022-08-05T07:40:24;2.67;;;2.10;;
8632;SDS011;4354;49.832;10.746;2022-08-05T07:42:58;2.92;;;2.00;;
8632;SDS011;4354;49.832;10.746;2022-08-05T07:45:30;3.25;;;2.30;;
8632;SDS011;4354;49.832;10.746;2022-08-05T07:48:18;5.93;;;2.55;;
8632;SDS011;4354;49.832;10.746;2022-08-05T07:51:04;4.57;;;2.05;;
8632;SDS011;4354;49.832;10.746;2022-08-05T07:53:49;2.70;;;1.77;;
8632;SDS011;4354;49.832;10.746;2022-08-05T07:56:16;3.28;;;1.80;;
8632;SDS011;4354;49.832;10.746;2022-08-05T07:59:03;4.57;;;1.70;;
8632;SDS011;4354;49.832;10.746;2022-08-05T08:01:33;2.88;;;1.85;;
8632;SDS011;4354;49.832;10.746;2022-08-05T08:04:17;3.13;;;1.80;;
8632;SDS011;4354;49.832;10.746;2022-08-05T08:07:04;2.15;;;1.40;;
8632;SDS011;4354;49.832;10.746;2022-08-05T08:09:33;2.92;;;1.77;;
8632;SDS011;4354;49.832;10.746;2022-08-05T08:12:02;2.83;;;1.70;;
8632;SDS011;4354;49.832;10.746;2022-08-05T08:14:42;2.70;;;1.52;;
8632;SDS011;4354;49.832;10.746;2022-08-05T08:17:12;3.03;;;1.67;;
8632;SDS011;4354;49.832;10.746;2022-08-05T08:19:42;2.78;;;1.85;;
8632;SDS011;4354;49.832;10.746;2022-08-05T08:22:30;1.70;;;1.60;;
8632;SDS011;4354;49.832;10.746;2022-08-05T08:24:57;2.08;;;1.80;;
8632;SDS011;4354;49.832;10.746;2022-08-05T08:27:43;2.90;;;1.50;;
8632;SDS011;4354;49.832;10.746;2022-08-05T08:30:16;1.65;;;1.55;;
8632;SDS011;4354;49.832;10.746;2022-08-05T08:32:59;3.55;;;1.73;;
8632;SDS011;4354;49.832;10.746;2022-08-05T08:35:30;2.15;;;1.60;;
8632;SDS011;4354;49.832;10.746;2022-08-05T08:38:06;3.17;;;1.70;;
8632;SDS011;4354;49.832;10.746;2022-08-05T08:40:41;1.95;;;1.60;;
8632;SDS011;4354;49.832;10.746;2022-08-05T08:43:17;2.15;;;1.48;;
8632;SDS011;4354;49.832;10.746;2022-08-05T08:46:04;2.35;;;1.67;;
8632;SDS011;4354;49.832;10.746;2022-08-05T08:48:35;4.55;;;1.50;;
8632;SDS011;4354;49.832;10.746;2022-08-05T08:51:25;3.05;;;1.50;;
8632;SDS011;4354;49.832;10.746;2022-08-05T08:54:16;3.22;;;1.77;;
8632;SDS011;4354;49.832;10.746;2022-08-05T08:56:43;2.00;;;1.70;;
8632;SDS011;4354;49.832;10.746;2022-08-05T08:59:16;2.03;;;1.60;;
8632;SDS011;4354;49.832;10.746;2022-08-05T09:01:46;1.70;;;1.60;;
8632;SDS011;4354;49.832;10.746;2022-08-05T09:04:22;3.53;;;1.67;;
8632;SDS011;4354;49.832;10.746;2022-08-05T09:06:56;2.28;;;1.30;;
8632;SDS011;4354;49.832;10.746;2022-08-05T09:09:23;1.40;;;1.30;;
8632;SDS011;4354;49.832;10.746;2022-08-05T09:12:00;2.53;;;1.25;;
8632;SDS011;4354;49.832;10.746;2022-08-05T09:14:45;1.85;;;1.38;;
8632;SDS011;4354;49.832;10.746;2022-08-05T09:17:29;1.92;;;1.20;;
8632;SDS011;4354;49.832;10.746;2022-08-05T09:20:08;2.45;;;1.30;;
8632;SDS011;4354;49.832;10.746;2022-08-05T09:25:33;2.85;;;1.30;;
8632;SDS011;4354;49.832;10.746;2022-08-05T09:28:20;1.40;;;1.30;;
8632;SDS011;4354;49.832;10.746;2022-08-05T09:39:22;1.98;;;1.55;;
8632;SDS011;4354;49.832;10.746;2022-08-05T09:42:09;1.67;;;1.20;;
8632;SDS011;4354;49.832;10.746;2022-08-05T09:44:49;1.27;;;1.17;;
8632;SDS011;4354;49.832;10.746;2022-08-05T09:47:23;1.40;;;1.30;;
8632;SDS011;4354;49.832;10.746;2022-08-05T09:50:01;2.08;;;1.45;;
8632;SDS011;4354;49.832;10.746;2022-08-05T09:52:29;2.92;;;1.50;;
8632;SDS011;4354;49.832;10.746;2022-08-05T09:55:06;3.53;;;1.30;;
8632;SDS011;4354;49.832;10.746;2022-08-05T09:57:54;4.13;;;1.50;;
8632;SDS011;4354;49.832;10.746;2022-08-05T10:00:24;2.33;;;1.40;;
8632;SDS011;4354;49.832;10.746;2022-08-05T10:02:51;2.97;;;1.60;;
8632;SDS011;4354;49.832;10.746;2022-08-05T10:05:24;1.60;;;1.50;;
8632;SDS011;4354;49.832;10.746;2022-08-05T10:07:56;1.88;;;1.70;;
8632;SDS011;4354;49.832;10.746;2022-08-05T10:10:46;1.98;;;1.70;;
8632;SDS011;4354;49.832;10.746;2022-08-05T10:13:36;3.25;;;1.63;;
8632;SDS011;4354;49.832;10.746;2022-08-05T10:16:32;2.35;;;1.50;;
8632;SDS011;4354;49.832;10.746;2022-08-05T10:19:18;1.75;;;1.63;;
8632;SDS011;4354;49.832;10.746;2022-08-05T10:22:06;3.78;;;1.60;;
8632;SDS011;4354;49.832;10.746;2022-08-05T10:24:40;2.78;;;1.60;;
8632;SDS011;4354;49.832;10.746;2022-08-05T10:27:11;2.50;;;1.55;;
8632;SDS011;4354;49.832;10.746;2022-08-05T10:29:41;1.55;;;1.45;;
8632;SDS011;4354;49.832;10.746;2022-08-05T10:32:28;2.38;;;1.77;;
8632;SDS011;4354;49.832;10.746;2022-08-05T10:35:17;2.58;;;1.42;;
8632;SDS011;4354;49.832;10.746;2022-08-05T10:37:44;2.88;;;1.65;;
8632;SDS011;4354;49.832;10.746;2022-08-05T10:46:03;3.35;;;1.75;;
8632;SDS011;4354;49.832;10.746;2022-08-05T10:48:39;2.30;;;1.98;;
8632;SDS011;4354;49.832;10.746;2022-08-05T10:51:23;4.85;;;1.80;;
8632;SDS011;4354;49.832;10.746;2022-08-05T10:53:55;2.05;;;1.70;;
8632;SDS011;4354;49.832;10.746;2022-08-05T10:56:46;4.18;;;1.77;;
8632;SDS011;4354;49.832;10.746;2022-08-05T10:59:28;1.83;;;1.40;;
8632;SDS011;4354;49.832;10.746;2022-08-05T11:02:15;2.78;;;1.40;;
8632;SDS011;4354;49.832;10.746;2022-08-05T11:05:07;2.03;;;1.63;;
8632;SDS011;4354;49.832;10.746;2022-08-05T11:07:54;2.90;;;1.70;;
8632;SDS011;4354;49.832;10.746;2022-08-05T11:10:32;2.60;;;1.60;;
8632;SDS011;4354;49.832;10.746;2022-08-05T11:13:03;5.85;;;1.65;;
8632;SDS011;4354;49.832;10.746;2022-08-05T11:15:35;2.72;;;1.50;;
8632;SDS011;4354;49.832;10.746;2022-08-05T11:18:30;3.60;;;1.70;;
8632;SDS011;4354;49.832;10.746;2022-08-05T11:20:59;3.47;;;1.52;;
8632;SDS011;4354;49.832;10.746;2022-08-05T11:23:52;2.88;;;1.60;;
8632;SDS011;4354;49.832;10.746;2022-08-05T11:26:39;2.10;;;1.80;;
8632;SDS011;4354;49.832;10.746;2022-08-05T11:29:34;2.08;;;1.50;;
8632;SDS011;4354;49.832;10.746;2022-08-05T11:35:04;3.22;;;1.67;;
8632;SDS011;4354;49.832;10.746;2022-08-05T11:46:34;4.28;;;1.63;;
8632;SDS011;4354;49.832;10.746;2022-08-05T11:49:26;2.15;;;1.67;;
8632;SDS011;4354;49.832;10.746;2022-08-05T11:51:53;1.80;;;1.52;;
8632;SDS011;4354;49.832;10.746;2022-08-05T11:54:26;2.88;;;1.75;;
8632;SDS011;4354;49.832;10.746;2022-08-05T11:57:01;3.30;;;1.60;;
8632;SDS011;4354;49.832;10.746;2022-08-05T11:59:49;2.97;;;1.55;;
8632;SDS011;4354;49.832;10.746;2022-08-05T12:02:16;2.25;;;1.77;;
8632;SDS011;4354;49.832;10.746;2022-08-05T12:04:55;3.58;;;1.83;;
8632;SDS011;4354;49.832;10.746;2022-08-05T12:07:24;1.45;;;1.35;;
8632;SDS011;4354;49.832;10.746;2022-08-05T12:10:12;2.08;;;1.70;;
8632;SDS011;4354;49.832;10.746;2022-08-05T12:12:44;4.00;;;1.70;;
8632;SDS011;4354;49.832;10.746;2022-08-05T12:15:25;2.50;;;1.92;;
8632;SDS011;4354;49.832;10.746;2022-08-05T12:18:03;2.63;;;1.50;;
8632;SDS011;4354;49.832;10.746;2022-08-05T12:20:37;3.15;;;2.00;;
8632;SDS011;4354;49.832;10.746;2022-08-05T12:23:07;2.45;;;2.00;;
8632;SDS011;4354;49.832;10.746;2022-08-05T12:25:51;2.08;;;1.60;;
8632;SDS011;4354;49.832;10.746;2022-08-05T12:28:29;2.08;;;1.90;;
8632;SDS011;4354;49.832;10.746;2022-08-05T12:31:02;2.00;;;1.80;;
8632;SDS011;4354;49.832;10.746;2022-08-05T12:33:29;2.83;;;1.73;;
8632;SDS011;4354;49.832;10.746;2022-08-05T12:36:02;2.60;;;1.67;;
8632;SDS011;4354;49.832;10.746;2022-08-05T12:38:35;3.83;;;1.90;;
8632;SDS011;4354;49.832;10.746;2022-08-05T12:41:15;2.08;;;1.88;;
8632;SDS011;4354;49.832;10.746;2022-08-05T12:46:19;3.25;;;2.33;;
8632;SDS011;4354;49.832;10.746;2022-08-05T12:49:04;3.35;;;2.10;;
8632;SDS011;4354;49.832;10.746;2022-08-05T12:51:47;2.10;;;1.90;;
8632;SDS011;4354;49.832;10.746;2022-08-05T12:54:35;2.92;;;1.88;;
8632;SDS011;4354;49.832;10.746;2022-08-05T12:57:04;1.52;;;1.42;;
8632;SDS011;4354;49.832;10.746;2022-08-05T13:03:04;2.38;;;1.55;;
8632;SDS011;4354;49.832;10.746;2022-08-05T13:05:37;3.88;;;1.90;;
8632;SDS011;4354;49.832;10.746;2022-08-05T13:08:07;3.10;;;1.98;;
8632;SDS011;4354;49.832;10.746;2022-08-05T13:10:40;7.85;;;2.50;;
8632;SDS011;4354;49.832;10.746;2022-08-05T13:13:18;2.13;;;1.92;;
8632;SDS011;4354;49.832;10.746;2022-08-05T13:16:10;4.50;;;2.67;;
8632;SDS011;4354;49.832;10.746;2022-08-05T13:18:53;6.15;;;1.92;;
8632;SDS011;4354;49.832;10.746;2022-08-05T13:21:24;2.42;;;2.00;;
8632;SDS011;4354;49.832;10.746;2022-08-05T13:24:02;2.97;;;2.30;;
8632;SDS011;4354;49.832;10.746;2022-08-05T13:26:30;3.90;;;1.95;;
8632;SDS011;4354;49.832;10.746;2022-08-05T13:28:57;5.05;;;2.13;;
8632;SDS011;4354;49.832;10.746;2022-08-05T13:31:25;3.05;;;2.00;;
8632;SDS011;4354;49.832;10.746;2022-08-05T13:34:13;2.65;;;2.00;;
8632;SDS011;4354;49.832;10.746;2022-08-05T13:36:50;4.88;;;1.98;;
8632;SDS011;4354;49.832;10.746;2022-08-05T13:39:18;2.40;;;2.20;;
8632;SDS011;4354;49.832;10.746;2022-08-05T13:42:05;4.35;;;2.05;;
8632;SDS011;4354;49.832;10.746;2022-08-05T13:44:39;3.10;;;2.03;;
8632;SDS011;4354;49.832;10.746;2022-08-05T13:47:11;2.72;;;2.00;;
8632;SDS011;4354;49.832;10.746;2022-08-05T13:49:59;3.42;;;1.95;;
8632;SDS011;4354;49.832;10.746;2022-08-05T13:52:31;3.25;;;1.83;;
8632;SDS011;4354;49.832;10.746;2022-08-05T13:55:01;5.38;;;2.17;;
8632;SDS011;4354;49.832;10.746;2022-08-05T13:57:35;3.65;;;1.80;;
8632;SDS011;4354;49.832;10.746;2022-08-05T14:00:17;1.60;;;1.50;;
8632;SDS011;4354;49.832;10.746;2022-08-05T14:02:53;2.25;;;1.58;;
8632;SDS011;4354;49.832;10.746;2022-08-05T14:05:21;2.03;;;1.42;;
8632;SDS011;4354;49.832;10.746;2022-08-05T14:08:08;3.22;;;1.50;;
8632;SDS011;4354;49.832;10.746;2022-08-05T14:10:46;1.42;;;1.33;;
8632;SDS011;4354;49.832;10.746;2022-08-05T14:13:13;3.05;;;1.55;;
8632;SDS011;4354;49.832;10.746;2022-08-05T14:15:41;1.98;;;1.52;;
8632;SDS011;4354;49.832;10.746;2022-08-05T14:18:28;2.72;;;1.67;;
8632;SDS011;4354;49.832;10.746;2022-08-05T14:20:55;1.60;;;1.50;;
8632;SDS011;4354;49.832;10.746;2022-08-05T14:23:25;1.65;;;1.55;;
8632;SDS011;4354;49.832;10.746;2022-08-05T14:26:01;2.05;;;1.75;;
8632;SDS011;4354;49.832;10.746;2022-08-05T14:28:30;3.33;;;1.60;;
8632;SDS011;4354;49.832;10.746;2022-08-05T14:30:57;2.03;;;1.55;;
8632;SDS011;4354;49.832;10.746;2022-08-05T14:33:26;3.33;;;1.58;;
8632;SDS011;4354;49.832;10.746;2022-08-05T14:36:13;2.15;;;1.85;;
8632;SDS011;4354;49.832;10.746;2022-08-05T14:38:40;3.88;;;2.08;;
8632;SDS011;4354;49.832;10.746;2022-08-05T14:41:07;2.05;;;1.50;;
8632;SDS011;4354;49.832;10.746;2022-08-05T14:43:35;3.05;;;1.80;;
8632;SDS011;4354;49.832;10.746;2022-08-05T14:46:23;3.20;;;2.08;;
8632;SDS011;4354;49.832;10.746;2022-08-05T14:48:56;2.60;;;1.58;;
8632;SDS011;4354;49.832;10.746;2022-08-05T14:51:33;1.88;;;1.65;;
8632;SDS011;4354;49.832;10.746;2022-08-05T14:54:02;3.30;;;1.98;;
8632;SDS011;4354;49.832;10.746;2022-08-05T14:56:49;3.55;;;2.03;;
8632;SDS011;4354;49.832;10.746;2022-08-05T14:59:19;3.60;;;1.98;;
8632;SDS011;4354;49.832;10.746;2022-08-05T15:01:47;3.88;;;1.80;;
8632;SDS011;4354;49.832;10.746;2022-08-05T15:04:18;3.70;;;2.15;;
8632;SDS011;4354;49.832;10.746;2022-08-05T15:06:51;3.63;;;1.98;;
8632;SDS011;4354;49.832;10.746;2022-08-05T15:09:18;2.95;;;2.05;;
8632;SDS011;4354;49.832;10.746;2022-08-05T15:12:06;4.03;;;2.30;;
8632;SDS011;4354;49.832;10.746;2022-08-05T15:14:34;3.15;;;1.85;;
8632;SDS011;4354;49.832;10.746;2022-08-05T15:17:15;4.10;;;1.88;;
8632;SDS011;4354;49.832;10.746;2022-08-05T15:20:05;3.08;;;2.10;;
8632;SDS011;4354;49.832;10.746;2022-08-05T15:22:45;4.53;;;1.80;;
8632;SDS011;4354;49.832;10.746;2022-08-05T15:25:20;2.42;;;2.00;;
8632;SDS011;4354;49.832;10.746;2022-08-05T15:28:09;4.40;;;2.03;;
8632;SDS011;4354;49.832;10.746;2022-08-05T15:30:39;4.10;;;2.20;;
8632;SDS011;4354;49.832;10.746;2022-08-05T15:33:08;2.80;;;1.60;;
8632;SDS011;4354;49.832;10.746;2022-08-05T15:35:36;2.55;;;1.85;;
8632;SDS011;4354;49.832;10.746;2022-08-05T15:38:10;2.40;;;1.85;;
8632;SDS011;4354;49.832;10.746;2022-08-05T15:40:58;3.15;;;1.92;;
8632;SDS011;4354;49.832;10.746;2022-08-05T15:43:45;2.10;;;1.80;;
8632;SDS011;4354;49.832;10.746;2022-08-05T15:46:12;2.58;;;1.90;;
8632;SDS011;4354;49.832;10.746;2022-08-05T15:48:40;2.35;;;1.75;;
8632;SDS011;4354;49.832;10.746;2022-08-05T15:51:26;2.53;;;1.80;;
8632;SDS011;4354;49.832;10.746;2022-08-05T15:54:15;3.08;;;2.00;;
8632;SDS011;4354;49.832;10.746;2022-08-05T15:56:42;4.38;;;2.42;;
8632;SDS011;4354;49.832;10.746;2022-08-05T15:59:09;2.95;;;2.13;;
8632;SDS011;4354;49.832;10.746;2022-08-05T16:01:47;4.03;;;2.30;;
8632;SDS011;4354;49.832;10.746;2022-08-05T16:04:18;2.60;;;2.40;;
8632;SDS011;4354;49.832;10.746;2022-08-05T16:06:51;3.08;;;2.70;;
8632;SDS011;4354;49.832;10.746;2022-08-05T16:09:20;2.63;;;2.42;;
8632;SDS011;4354;49.832;10.746;2022-08-05T16:11:48;2.60;;;2.40;;
8632;SDS011;4354;49.832;10.746;2022-08-05T16:14:19;4.10;;;2.25;;
8632;SDS011;4354;49.832;10.746;2022-08-05T16:16:47;3.42;;;2.65;;
8632;SDS011;4354;49.832;10.746;2022-08-05T16:19:14;2.80;;;2.42;;
8632;SDS011;4354;49.832;10.746;2022-08-05T16:22:05;2.45;;;2.25;;
8632;SDS011;4354;49.832;10.746;2022-08-05T16:24:36;2.30;;;2.05;;
8632;SDS011;4354;49.832;10.746;2022-08-05T16:27:16;2.88;;;2.35;;
8632;SDS011;4354;49.832;10.746;2022-08-05T16:29:43;3.88;;;2.55;;
8632;SDS011;4354;49.832;10.746;2022-08-05T16:32:16;2.97;;;2.53;;
8632;SDS011;4354;49.832;10.746;2022-08-05T16:34:54;2.97;;;2.60;;
8632;SDS011;4354;49.832;10.746;2022-08-05T16:37:22;2.95;;;2.65;;
8632;SDS011;4354;49.832;10.746;2022-08-05T16:40:09;5.28;;;2.88;;
8632;SDS011;4354;49.832;10.746;2022-08-05T16:42:51;3.95;;;2.72;;
8632;SDS011;4354;49.832;10.746;2022-08-05T16:45:18;2.75;;;2.45;;
8632;SDS011;4354;49.832;10.746;2022-08-05T16:48:05;3.42;;;3.13;;
8632;SDS011;4354;49.832;10.746;2022-08-05T16:50:35;5.63;;;3.00;;